Time;durP1;ratioP1;P1;durP2;ratioP2;P2;SDS_P1;SDS_P2;PMS_P1;PMS_P2;Temp;Humidity;BMP_temperature;BMP_pressure;BME280_temperature;BME280_humidity;BME280_pressure;Samples;Min_cycle;Max_cycle;Signal;HPM_P1;HPM_P2
2022/01/28 00:04:49;;;;;;;21.57;14.00;;;;;;;2.71;73.65;99859.27;1701624;84;21018;-69
2022/01/28 00:07:16;;;;;;;23.38;14.33;;;;;;;2.74;73.63;99855.38;1701580;82;21169;-69
2022/01/28 00:09:43;;;;;;;19.42;13.38;;;;;;;2.75;73.64;99853.03;1701326;84;21639;-70
2022/01/28 00:12:11;;;;;;;22.50;14.25;;;;;;;2.77;73.61;99854.94;1701464;82;21002;-69
2022/01/28 00:20:33;;;;;;;21.95;14.68;;;;;;;2.76;73.53;99844.91;1701627;84;21132;-69
2022/01/28 00:38:47;;;;;;;22.82;14.83;;;;;;;2.75;73.38;99812.16;1713619;83;21138;-69
2022/01/28 00:41:14;;;;;;;23.05;14.58;;;;;;;2.76;73.33;99804.03;1716583;83;21078;-70
2022/01/28 00:43:41;;;;;;;23.32;14.83;;;;;;;2.80;73.31;99812.30;1716741;82;20959;-68
2022/01/28 00:46:08;;;;;;;22.62;13.90;;;;;;;2.79;73.14;99803.56;1716769;83;22370;-69
2022/01/28 00:48:35;;;;;;;21.42;14.20;;;;;;;2.81;73.08;99805.47;1717081;83;21034;-69
2022/01/28 00:51:02;;;;;;;20.17;13.78;;;;;;;2.82;73.06;99796.52;1717002;83;21023;-69
2022/01/28 00:53:28;;;;;;;23.73;15.08;;;;;;;2.84;73.00;99796.83;1716875;83;20975;-69
2022/01/28 00:55:55;;;;;;;20.82;14.90;;;;;;;2.83;72.96;99788.13;1717046;83;20995;-69
2022/01/28 00:58:22;;;;;;;23.42;14.45;;;;;;;2.81;72.97;99788.84;1716961;83;21529;-69
2022/01/28 01:00:49;;;;;;;20.12;14.45;;;;;;;2.80;73.03;99781.45;1716796;83;20944;-68
2022/01/28 01:03:16;;;;;;;20.72;14.35;;;;;;;2.81;73.04;99775.66;1716810;83;21055;-69
2022/01/28 01:05:43;;;;;;;20.92;14.20;;;;;;;2.83;73.05;99769.66;1716816;83;21018;-71
2022/01/28 01:08:10;;;;;;;21.57;14.47;;;;;;;2.85;73.02;99775.49;1717119;83;21450;-69
2022/01/28 01:10:37;;;;;;;22.32;13.95;;;;;;;2.82;73.02;99766.19;1716835;83;21507;-69
2022/01/28 01:13:04;;;;;;;20.35;13.43;;;;;;;2.83;73.02;99760.43;1716632;83;21007;-69
2022/01/28 01:15:36;;;;;;;24.43;15.23;;;;;;;2.85;73.02;99764.94;1716843;83;21622;-69
2022/01/28 01:18:08;;;;;;;23.27;15.00;;;;;;;2.82;73.07;99756.96;1716875;83;21582;-70
2022/01/28 01:23:07;;;;;;;22.60;14.60;;;;;;;2.80;73.22;99744.53;1716850;83;21546;-68
2022/01/28 01:25:28;;;;;;;21.25;14.20;;;;;;;2.76;73.23;99738.59;1715550;83;21141;-69
2022/01/28 01:27:57;;;;;;;23.60;15.23;;;;;;;2.74;73.30;99737.52;1716834;83;21578;-69
2022/01/28 01:30:29;;;;;;;21.57;14.75;;;;;;;2.76;73.25;99738.59;1716694;83;21098;-68
2022/01/28 01:32:55;;;;;;;23.77;15.53;;;;;;;2.77;73.24;99729.68;1706134;82;21037;-69
2022/01/28 01:35:22;;;;;;;21.65;14.28;;;;;;;2.79;73.11;99722.33;1705302;82;21130;-70
2022/01/28 01:37:49;;;;;;;21.85;14.83;;;;;;;2.82;73.01;99720.56;1701799;83;21430;-69
2022/01/28 01:40:25;;;;;;;23.52;14.30;;;;;;;2.81;72.92;99711.05;1701570;82;21590;-69
2022/01/28 01:42:51;;;;;;;22.82;14.38;;;;;;;2.83;72.87;99706.36;1701649;83;21030;-68
2022/01/28 01:53:08;;;;;;;22.98;14.58;;;;;;;2.81;72.65;99691.27;1691847;84;21074;-69
2022/01/28 01:55:34;;;;;;;22.15;14.53;;;;;;;2.80;72.61;99690.99;1701865;84;21002;-69
2022/01/28 01:58:01;;;;;;;24.65;14.98;;;;;;;2.78;72.55;99685.12;1702243;84;21070;-69
2022/01/28 02:00:27;;;;;;;23.02;15.10;;;;;;;2.80;72.55;99689.67;1701546;84;21035;-69
2022/01/28 02:02:54;;;;;;;23.95;14.07;;;;;;;2.81;72.52;99683.36;1702093;84;21109;-69
2022/01/28 02:05:20;;;;;;;22.50;14.80;;;;;;;2.80;72.55;99685.72;1701793;84;21545;-69
2022/01/28 02:07:48;;;;;;;23.62;15.13;;;;;;;2.79;72.63;99678.81;1701659;84;21620;-69
2022/01/28 02:10:14;;;;;;;22.07;14.95;;;;;;;2.77;72.67;99684.84;1701613;84;21050;-70
2022/01/28 02:12:50;;;;;;;24.30;15.58;;;;;;;2.73;72.78;99674.44;1702096;84;21534;-68
2022/01/28 02:15:18;;;;;;;21.55;14.73;;;;;;;2.68;73.00;99679.09;1701637;84;21152;-69
2022/01/28 02:17:44;;;;;;;22.75;15.05;;;;;;;2.66;73.22;99675.87;1701869;82;21054;-69
2022/01/28 02:20:33;;;;;;;22.52;14.28;;;;;;;2.66;73.29;99673.75;1701582;84;20994;-69
2022/01/28 02:22:55;;;;;;;22.48;14.13;;;;;;;2.66;73.43;99679.82;1702086;84;21069;-68
2022/01/28 02:25:30;;;;;;;23.15;14.93;;;;;;;2.62;73.68;99670.77;1701667;84;21795;-69
2022/01/28 02:28:02;;;;;;;18.85;13.08;;;;;;;2.62;73.78;99678.67;1701899;84;21115;-69
2022/01/28 02:30:28;;;;;;;17.80;11.70;;;;;;;2.65;73.92;99674.78;1701787;83;21035;-68
2022/01/28 02:33:01;;;;;;;21.82;15.03;;;;;;;2.65;74.00;99673.47;1704954;82;21042;-69
2022/01/28 02:35:24;;;;;;;21.80;13.98;;;;;;;2.63;74.13;99675.52;1700747;83;21552;-69
2022/01/28 02:37:50;;;;;;;22.62;14.28;;;;;;;2.60;74.37;99676.80;1702216;84;21537;-68
2022/01/28 02:40:17;;;;;;;22.70;14.63;;;;;;;2.56;74.59;99667.71;1701665;82;21510;-68
2022/01/28 02:45:14;;;;;;;20.40;14.65;;;;;;;2.54;74.98;99663.99;1701550;84;21015;-69
2022/01/28 02:47:42;;;;;;;22.42;14.10;;;;;;;2.53;75.04;99651.02;1701546;84;20983;-69
2022/01/28 02:50:09;;;;;;;21.42;14.28;;;;;;;2.55;75.13;99653.73;1701444;84;21156;-69
2022/01/28 02:52:54;;;;;;;21.95;14.78;;;;;;;2.55;75.17;99652.93;1701667;84;21541;-69
2022/01/28 02:55:14;;;;;;;20.82;13.75;;;;;;;2.53;75.24;99645.27;1701600;84;21093;-69
2022/01/28 02:57:51;;;;;;;20.10;13.72;;;;;;;2.56;75.28;99649.26;1701864;83;20987;-69
2022/01/28 03:00:11;;;;;;;20.72;14.07;;;;;;;2.53;75.32;99650.53;1701347;84;21058;-68
2022/01/28 03:02:38;;;;;;;21.48;13.80;;;;;;;2.53;75.34;99645.27;1702051;84;21118;-69
2022/01/28 03:05:30;;;;;;;20.25;14.25;;;;;;;2.54;75.37;99645.55;1701109;82;21029;-68
2022/01/28 03:07:37;;;;;;;20.05;13.58;;;;;;;2.54;75.37;99635.00;1701434;84;21094;-68
2022/01/28 03:12:47;;;;;;;20.48;13.20;;;;;;;2.61;75.39;99639.37;1701851;84;21533;-68
2022/01/28 03:15:07;;;;;;;20.05;13.78;;;;;;;2.63;75.37;99632.81;1701300;84;22333;-67
2022/01/28 03:22:46;;;;;;;18.87;13.22;;;;;;;2.59;75.34;99627.72;1701814;84;21014;-69
2022/01/28 03:25:13;;;;;;;19.55;13.38;;;;;;;2.58;75.34;99637.46;1701553;84;21319;-68
2022/01/28 03:30:08;;;;;;;19.52;13.25;;;;;;;2.61;75.41;99639.37;1701455;84;21030;-68
2022/01/28 03:32:36;;;;;;;20.97;12.93;;;;;;;2.62;75.42;99630.42;1701752;84;21559;-68
2022/01/28 03:35:04;;;;;;;19.95;13.62;;;;;;;2.64;75.38;99628.37;1701622;83;21070;-68
2022/01/28 03:37:31;;;;;;;18.17;12.88;;;;;;;2.59;75.37;99631.67;1701594;84;21003;-68
2022/01/28 03:39:58;;;;;;;19.20;13.05;;;;;;;2.58;75.40;99632.19;1701690;84;21159;-69
2022/01/28 03:42:24;;;;;;;19.02;12.45;;;;;;;2.58;75.48;99630.88;1701745;83;21150;-69
2022/01/28 03:44:51;;;;;;;19.60;12.43;;;;;;;2.60;75.50;99620.12;1701742;84;21022;-69
2022/01/28 03:47:17;;;;;;;21.05;12.80;;;;;;;2.61;75.47;99618.28;1701748;84;21062;-69
2022/01/28 03:49:44;;;;;;;17.27;12.43;;;;;;;2.59;75.47;99623.24;1701515;84;21631;-68
2022/01/28 03:52:10;;;;;;;17.80;12.05;;;;;;;2.61;75.41;99614.33;1702013;84;21777;-68
2022/01/28 03:54:37;;;;;;;18.25;12.15;;;;;;;2.63;75.39;99614.36;1701797;84;21580;-68
2022/01/28 03:57:07;;;;;;;19.15;12.53;;;;;;;2.61;75.31;99613.00;1702058;84;21061;-67
2022/01/28 03:59:35;;;;;;;19.85;12.68;;;;;;;2.61;75.29;99599.83;1701830;84;21046;-68
2022/01/28 04:02:05;;;;;;;19.32;12.90;;;;;;;2.60;75.23;99601.66;1702074;84;21022;-69
2022/01/28 04:12:34;;;;;;;19.80;13.00;;;;;;;2.58;75.44;99592.64;1701847;84;21117;-68
2022/01/28 04:17:42;;;;;;;18.73;12.28;;;;;;;2.61;75.54;99595.88;1702033;84;21135;-69
2022/01/28 04:20:09;;;;;;;18.75;13.25;;;;;;;2.58;75.52;99592.64;1701742;84;20972;-68
2022/01/28 04:22:38;;;;;;;17.42;11.63;;;;;;;2.57;75.49;99589.73;1701992;84;21105;-68
2022/01/28 04:25:05;;;;;;;18.20;12.63;;;;;;;2.57;75.49;99588.41;1701573;82;21695;-68
2022/01/28 04:27:32;;;;;;;17.05;11.53;;;;;;;2.54;75.47;99591.50;1702079;84;21129;-69
2022/01/28 04:29:58;;;;;;;15.25;10.45;;;;;;;2.55;75.52;99593.10;1701772;84;21851;-69
2022/01/28 04:32:27;;;;;;;19.00;12.15;;;;;;;2.55;75.57;99590.98;1701828;83;21071;-68
2022/01/28 04:34:54;;;;;;;16.75;11.53;;;;;;;2.52;75.62;99584.84;1701586;84;21098;-69
2022/01/28 04:37:40;;;;;;;18.77;11.88;;;;;;;2.51;75.67;99592.48;1701717;84;21478;-68
2022/01/28 04:40:12;;;;;;;17.20;11.20;;;;;;;2.51;75.70;99588.52;1701492;82;21094;-68
2022/01/28 04:42:53;;;;;;;19.12;11.95;;;;;;;2.47;75.74;99582.91;1705074;82;27118;-68
2022/01/28 04:45:17;;;;;;;17.25;11.73;;;;;;;2.49;75.78;99586.09;1701264;84;21046;-69
2022/01/28 04:47:57;;;;;;;16.25;10.55;;;;;;;2.51;75.80;99580.09;1701444;84;20987;-68
2022/01/28 04:50:20;;;;;;;16.67;11.40;;;;;;;2.55;75.76;99586.52;1698440;82;21113;-68
2022/01/28 04:53:05;;;;;;;17.25;11.12;;;;;;;2.58;75.64;99586.05;1701917;83;21498;-68
2022/01/28 05:11:14;;;;;;;16.97;11.10;;;;;;;2.62;75.53;99576.38;1685394;85;21062;-69
2022/01/28 05:13:49;;;;;;;14.73;9.93;;;;;;;2.58;75.48;99570.23;1698668;84;21625;-68
2022/01/28 05:28:48;;;;;;;14.60;9.70;;;;;;;2.63;75.37;99559.52;1701582;82;21054;-67
2022/01/28 05:31:18;;;;;;;14.65;10.05;;;;;;;2.64;75.30;99556.67;1701604;83;21069;-69
2022/01/28 05:33:46;;;;;;;16.00;9.80;;;;;;;2.65;75.24;99561.42;1701810;84;21972;-67
2022/01/28 05:36:12;;;;;;;13.43;8.98;;;;;;;2.66;75.15;99559.86;1701206;84;21513;-68
2022/01/28 05:38:41;;;;;;;15.05;9.73;;;;;;;2.67;75.12;99564.13;1701617;84;21113;-69
2022/01/28 05:41:08;;;;;;;15.55;10.05;;;;;;;2.67;75.01;99561.48;1701813;84;20974;-67
2022/01/28 05:43:35;;;;;;;14.18;9.35;;;;;;;2.67;74.98;99563.33;1701813;82;21089;-68
2022/01/28 05:46:01;;;;;;;14.23;9.93;;;;;;;2.70;74.92;99568.11;1704494;82;22115;-68
2022/01/28 05:48:28;;;;;;;15.58;10.45;;;;;;;2.71;74.89;99559.19;1701631;84;21037;-67
2022/01/28 05:50:54;;;;;;;13.48;9.50;;;;;;;2.71;74.80;99553.39;1701538;84;21176;-69
2022/01/28 05:53:21;;;;;;;13.83;9.53;;;;;;;2.74;74.73;99562.69;1702182;84;20982;-69
2022/01/28 05:55:47;;;;;;;14.93;9.88;;;;;;;2.74;74.71;99564.01;1701638;84;21050;-69
2022/01/28 05:58:14;;;;;;;13.65;9.60;;;;;;;2.76;74.66;99550.06;1702230;84;21125;-69
2022/01/28 06:00:40;;;;;;;15.40;9.95;;;;;;;2.78;74.61;99559.34;1701666;84;20975;-68
2022/01/28 06:03:07;;;;;;;13.28;9.05;;;;;;;2.78;74.58;99556.72;1701729;84;21006;-69
2022/01/28 06:05:34;;;;;;;16.27;10.08;;;;;;;2.83;74.55;99558.67;1701613;84;21120;-68
2022/01/28 06:08:01;;;;;;;15.30;10.03;;;;;;;2.84;74.50;99553.68;1702245;84;21560;-69
2022/01/28 06:10:27;;;;;;;12.60;8.88;;;;;;;2.87;74.46;99548.47;1701640;84;22001;-69
2022/01/28 06:12:54;;;;;;;13.90;9.00;;;;;;;2.91;74.39;99559.63;1701905;84;21656;-68
2022/01/28 06:15:21;;;;;;;12.93;9.30;;;;;;;2.93;74.25;99562.85;1701613;84;21588;-69
2022/01/28 06:17:49;;;;;;;13.48;9.10;;;;;;;2.93;74.22;99560.21;1701752;84;21018;-68
2022/01/28 06:20:19;;;;;;;13.98;9.43;;;;;;;2.92;74.13;99557.79;1701769;84;21625;-68
2022/01/28 06:22:47;;;;;;;14.68;9.98;;;;;;;2.93;74.14;99557.58;1701761;84;21423;-68
2022/01/28 06:25:15;;;;;;;13.50;9.13;;;;;;;2.96;74.12;99555.80;1701568;84;21078;-69
2022/01/28 06:27:43;;;;;;;12.37;8.20;;;;;;;2.99;74.06;99550.03;1701770;84;21668;-69
2022/01/28 06:30:10;;;;;;;14.28;9.08;;;;;;;3.04;74.03;99546.20;1701723;83;21015;-69
2022/01/28 06:32:37;;;;;;;14.13;9.03;;;;;;;3.08;73.97;99556.28;1701826;84;21047;-69
2022/01/28 06:35:08;;;;;;;15.20;9.68;;;;;;;3.07;73.83;99551.53;1701748;84;22153;-68
2022/01/28 06:37:39;;;;;;;14.50;9.73;;;;;;;3.05;73.77;99555.70;1701595;84;20978;-68
2022/01/28 06:40:09;;;;;;;14.00;8.83;;;;;;;3.05;73.77;99554.91;1701627;84;21006;-68
2022/01/28 06:42:37;;;;;;;13.18;9.08;;;;;;;3.09;73.78;99557.88;1701684;83;21022;-68
2022/01/28 06:45:06;;;;;;;14.83;9.85;;;;;;;3.11;73.71;99557.14;1702497;82;21070;-68
2022/01/28 06:47:35;;;;;;;14.03;9.38;;;;;;;3.14;73.64;99564.59;1701757;84;21522;-68
2022/01/28 06:50:05;;;;;;;15.38;9.55;;;;;;;3.15;73.60;99559.59;1703879;82;21643;-68
2022/01/28 06:52:33;;;;;;;15.55;10.00;;;;;;;3.16;73.57;99565.15;1701775;84;21673;-68
2022/01/28 06:55:01;;;;;;;14.50;8.58;;;;;;;3.16;73.53;99565.97;1701832;84;21643;-68
2022/01/28 06:57:29;;;;;;;12.93;8.55;;;;;;;3.18;73.57;99563.89;1701635;84;21564;-68
2022/01/28 06:59:57;;;;;;;13.65;9.08;;;;;;;3.22;73.52;99560.27;1701060;84;21150;-68
2022/01/28 07:02:23;;;;;;;15.25;9.68;;;;;;;3.23;73.46;99560.56;1701707;84;21513;-69
2022/01/28 07:04:50;;;;;;;15.60;9.60;;;;;;;3.25;73.43;99559.80;1702013;84;21031;-69
2022/01/28 07:07:17;;;;;;;12.23;8.15;;;;;;;3.27;73.40;99569.09;1701673;84;21109;-68
2022/01/28 07:09:44;;;;;;;13.98;9.15;;;;;;;3.31;73.33;99570.75;1701867;84;21574;-67
2022/01/28 07:12:11;;;;;;;12.90;9.20;;;;;;;3.32;73.28;99561.78;1701845;84;21041;-69
2022/01/28 07:14:38;;;;;;;13.08;9.53;;;;;;;3.34;73.26;99561.05;1701578;84;21561;-68
2022/01/28 07:17:04;;;;;;;14.35;9.03;;;;;;;3.36;73.12;99566.11;1701583;84;21482;-68
2022/01/28 07:19:32;;;;;;;14.78;9.83;;;;;;;3.33;73.04;99558.13;1701693;84;21589;-68
2022/01/28 07:21:59;;;;;;;14.73;9.73;;;;;;;3.34;73.12;99564.20;1701671;84;21062;-69
2022/01/28 07:24:25;;;;;;;14.23;9.15;;;;;;;3.38;73.03;99564.02;1702006;84;21113;-69
2022/01/28 07:26:53;;;;;;;15.88;9.80;;;;;;;3.40;73.01;99563.28;1701643;84;20986;-66
2022/01/28 07:29:20;;;;;;;12.18;8.55;;;;;;;3.43;72.93;99566.77;1710808;83;20963;-67
2022/01/28 07:31:47;;;;;;;16.23;9.80;;;;;;;3.45;72.80;99572.08;1716760;83;21077;-68
2022/01/28 07:34:13;;;;;;;13.58;9.40;;;;;;;3.45;72.78;99572.08;1717134;83;21054;-68
2022/01/28 07:36:40;;;;;;;13.98;9.43;;;;;;;3.43;72.71;99566.25;1716623;83;21303;-68
2022/01/28 07:39:07;;;;;;;14.45;9.48;;;;;;;3.42;72.62;99567.30;1716912;83;20999;-68
2022/01/28 07:41:35;;;;;;;13.32;9.30;;;;;;;3.44;72.58;99553.84;1716566;83;20972;-68
2022/01/28 07:44:01;;;;;;;15.20;9.70;;;;;;;3.47;72.58;99562.09;1710330;82;21030;-66
2022/01/28 07:46:28;;;;;;;14.40;9.63;;;;;;;3.53;72.50;99563.01;1701789;84;21073;-68
2022/01/28 07:48:55;;;;;;;14.60;10.18;;;;;;;3.58;72.41;99561.77;1701823;84;21218;-68
2022/01/28 07:51:22;;;;;;;14.58;9.68;;;;;;;3.61;72.18;99566.58;1701495;84;21050;-69
2022/01/28 07:53:50;;;;;;;14.25;10.03;;;;;;;3.67;72.13;99562.20;1701605;84;20990;-68
2022/01/28 07:56:17;;;;;;;15.15;10.00;;;;;;;3.78;71.98;99562.66;1701770;84;21031;-68
2022/01/28 07:58:43;;;;;;;14.18;9.35;;;;;;;3.88;71.69;99560.23;1701744;84;21449;-67
2022/01/28 08:01:10;;;;;;;13.13;9.20;;;;;;;3.98;71.32;99559.58;1701646;84;21442;-68
2022/01/28 08:03:37;;;;;;;13.00;9.23;;;;;;;4.03;70.98;99547.00;1701928;84;21007;-68
2022/01/28 08:06:03;;;;;;;14.20;9.83;;;;;;;4.12;70.91;99541.08;1701403;84;20991;-68
2022/01/28 08:08:30;;;;;;;12.43;8.80;;;;;;;4.28;70.74;99536.84;1701784;84;21043;-68
2022/01/28 08:10:57;;;;;;;13.03;9.43;;;;;;;4.41;70.33;99538.38;1701914;84;21478;-69
2022/01/28 08:13:23;;;;;;;13.80;9.35;;;;;;;4.51;69.84;99537.70;1702222;82;21180;-69
2022/01/28 08:15:50;;;;;;;12.90;9.20;;;;;;;4.65;69.49;99535.81;1701700;84;20987;-67
2022/01/28 08:18:17;;;;;;;14.13;9.30;;;;;;;4.69;68.82;99522.38;1701865;84;20998;-68
2022/01/28 08:20:46;;;;;;;11.40;8.15;;;;;;;4.75;68.35;99521.93;1705271;82;20951;-68
2022/01/28 08:23:12;;;;;;;13.28;8.98;;;;;;;4.87;68.29;99527.92;1702157;84;21085;-68
2022/01/28 08:25:40;;;;;;;11.68;8.95;;;;;;;4.97;67.72;99524.61;1701568;84;21107;-67
2022/01/28 08:28:07;;;;;;;12.80;8.85;;;;;;;5.04;67.69;99523.11;1702046;83;20967;-67
2022/01/28 08:30:39;;;;;;;11.33;8.08;;;;;;;5.16;67.41;99525.09;1701689;84;21089;-67
2022/01/28 08:33:06;;;;;;;14.18;9.05;;;;;;;5.24;67.00;99514.61;1701851;84;27110;-68
2022/01/28 08:35:37;;;;;;;11.40;8.43;;;;;;;5.28;66.66;99517.83;1701994;84;20967;-68
2022/01/28 08:38:13;;;;;;;12.50;8.78;;;;;;;5.30;66.09;99517.59;1701817;83;21542;-70
2022/01/28 08:40:33;;;;;;;12.10;8.40;;;;;;;5.26;65.91;99521.23;1700669;84;21486;-69
2022/01/28 08:43:00;;;;;;;11.63;8.45;;;;;;;5.20;65.38;99521.42;1701585;83;21070;-69
2022/01/28 08:45:27;;;;;;;12.15;8.80;;;;;;;5.14;65.53;99525.88;1701988;84;21137;-68
2022/01/28 08:47:53;;;;;;;11.50;8.50;;;;;;;5.11;65.26;99523.20;1701909;84;21014;-72
2022/01/28 08:50:20;;;;;;;13.85;9.23;;;;;;;5.09;65.33;99519.98;1701581;84;21115;-68
2022/01/28 08:52:47;;;;;;;12.40;8.70;;;;;;;5.08;65.18;99520.23;1701744;83;21086;-70
2022/01/28 08:55:15;;;;;;;13.62;8.15;;;;;;;4.96;64.87;99521.67;1700670;82;21089;-69
2022/01/28 08:57:44;;;;;;;12.13;8.93;;;;;;;4.87;65.08;99521.31;1701564;84;20983;-70
2022/01/28 09:00:17;;;;;;;12.68;8.63;;;;;;;4.77;65.07;99523.82;1701590;84;21070;-69
2022/01/28 09:02:43;;;;;;;11.90;8.20;;;;;;;4.68;65.28;99526.59;1701573;84;21135;-71
2022/01/28 09:05:10;;;;;;;12.40;8.90;;;;;;;4.65;65.41;99516.50;1701966;84;21083;-71
2022/01/28 09:07:39;;;;;;;11.57;8.33;;;;;;;4.62;65.53;99520.95;1701731;82;21038;-70
2022/01/28 09:10:11;;;;;;;13.68;8.78;;;;;;;4.61;65.60;99514.07;1701693;84;21098;-70
2022/01/28 09:12:39;;;;;;;13.75;9.40;;;;;;;4.54;65.83;99516.89;1701576;83;20994;-70
2022/01/28 09:15:04;;;;;;;13.65;9.48;;;;;;;4.38;66.19;99514.53;1714465;83;21121;-70
2022/01/28 09:17:31;;;;;;;12.13;9.30;;;;;;;4.30;66.56;99508.84;1714378;83;21059;-69
2022/01/28 09:19:57;;;;;;;12.73;8.55;;;;;;;4.26;66.90;99503.77;1703154;82;21112;-69
2022/01/28 09:22:25;;;;;;;12.80;8.68;;;;;;;4.24;67.18;99496.06;1702020;83;21081;-71
2022/01/28 09:24:52;;;;;;;11.45;8.15;;;;;;;4.27;67.41;99512.76;1702086;84;21018;-71
2022/01/28 09:27:20;;;;;;;11.30;8.83;;;;;;;4.27;67.44;99508.00;1713435;83;21632;-70
2022/01/28 09:29:47;;;;;;;12.20;7.87;;;;;;;4.28;67.35;99509.09;1716621;83;21090;-70
2022/01/28 09:32:16;;;;;;;12.03;8.70;;;;;;;4.27;67.36;99504.83;1716986;83;21632;-70
2022/01/28 09:34:44;;;;;;;13.70;9.58;;;;;;;4.27;67.49;99504.03;1717105;83;21110;-70
2022/01/28 09:37:13;;;;;;;12.23;8.33;;;;;;;4.30;67.45;99503.55;1702441;83;20983;-70
2022/01/28 09:39:45;;;;;;;14.45;9.80;;;;;;;4.29;67.45;99500.64;1701366;84;22037;-70
2022/01/28 09:42:15;;;;;;;13.32;8.25;;;;;;;4.29;67.41;99492.19;1701656;82;21071;-72
2022/01/28 09:44:43;;;;;;;12.88;8.50;;;;;;;4.34;67.39;99479.55;1704914;82;21615;-70
2022/01/28 09:47:11;;;;;;;13.83;9.85;;;;;;;4.45;67.37;99474.70;1701890;84;21493;-71
2022/01/28 09:49:40;;;;;;;13.65;8.75;;;;;;;4.64;67.29;99471.23;1701525;84;21093;-70
2022/01/28 09:52:09;;;;;;;11.95;8.63;;;;;;;4.74;66.85;99470.08;1701973;84;21514;-69
2022/01/28 09:54:36;;;;;;;11.80;8.33;;;;;;;4.78;66.29;99471.70;1701714;84;21026;-71
2022/01/28 09:57:04;;;;;;;11.95;8.70;;;;;;;4.78;66.04;99467.21;1701628;84;21011;-69
2022/01/28 09:59:31;;;;;;;13.48;9.28;;;;;;;4.80;66.11;99468.28;1710891;83;20991;-71
2022/01/28 10:01:58;;;;;;;11.55;8.65;;;;;;;4.83;66.04;99454.03;1714343;83;21122;-71
2022/01/28 10:04:25;;;;;;;11.30;8.43;;;;;;;4.92;65.84;99463.67;1706609;82;21583;-71
2022/01/28 10:06:54;;;;;;;12.00;8.68;;;;;;;4.97;65.55;99453.16;1701975;84;21046;-71
2022/01/28 10:09:23;;;;;;;12.73;9.53;;;;;;;5.03;65.40;99452.15;1701966;84;21118;-72
2022/01/28 10:11:53;;;;;;;12.75;8.83;;;;;;;5.08;65.18;99453.55;1701613;84;21712;-71
2022/01/28 10:14:27;;;;;;;11.97;7.90;;;;;;;5.12;64.97;99449.88;1701939;84;21482;-72
2022/01/28 10:16:58;;;;;;;11.88;8.55;;;;;;;5.22;64.97;99446.55;1701748;84;21166;-73
2022/01/28 10:19:40;;;;;;;11.33;7.97;;;;;;;5.26;64.38;99444.98;1701463;82;21149;-72
2022/01/28 10:22:19;;;;;;;11.93;7.75;;;;;;;5.28;64.16;99441.58;1702284;84;20986;-72
2022/01/28 10:24:46;;;;;;;11.57;8.70;;;;;;;5.31;64.26;99435.79;1701678;83;21715;-70
2022/01/28 10:27:14;;;;;;;11.40;8.45;;;;;;;5.44;63.98;99430.63;1702044;84;21652;-72
2022/01/28 10:29:44;;;;;;;12.50;9.20;;;;;;;5.46;63.56;99429.83;1701625;84;21074;-73
2022/01/28 10:32:14;;;;;;;11.38;8.70;;;;;;;5.43;63.39;99430.33;1701925;84;21010;-72
2022/01/28 10:34:46;;;;;;;15.48;9.08;;;;;;;5.43;63.23;99424.53;1701571;84;21284;-72
2022/01/28 10:37:20;;;;;;;11.30;7.83;;;;;;;5.40;63.14;99423.70;1702034;84;21039;-73
2022/01/28 10:39:58;;;;;;;12.82;9.30;;;;;;;5.40;63.17;99412.59;1701655;84;21411;-73
2022/01/28 10:42:41;;;;;;;13.13;9.08;;;;;;;5.45;63.16;99413.67;1701979;83;21157;-72
2022/01/28 10:45:14;;;;;;;11.48;8.68;;;;;;;5.50;63.13;99406.58;1701625;84;21022;-74
2022/01/28 10:47:51;;;;;;;11.70;8.50;;;;;;;5.58;63.09;99405.31;1701986;84;20994;-74
2022/01/28 10:50:33;;;;;;;10.48;8.03;;;;;;;5.71;62.90;99404.09;1701544;83;21564;-73
2022/01/28 10:53:13;;;;;;;11.80;8.68;;;;;;;5.87;62.61;99395.22;1702238;84;21081;-72
2022/01/28 10:55:48;;;;;;;13.58;8.88;;;;;;;5.95;62.09;99392.64;1701703;84;21105;-74
2022/01/28 10:58:18;;;;;;;11.95;8.80;;;;;;;6.00;62.04;99389.50;1677348;84;21077;-72
2022/01/28 11:00:48;;;;;;;11.33;8.70;;;;;;;6.05;61.56;99386.08;1701687;84;21077;-73
2022/01/28 11:03:17;;;;;;;12.15;8.75;;;;;;;6.08;61.54;99384.24;1700954;83;21670;-73
2022/01/28 11:05:44;;;;;;;11.33;8.08;;;;;;;6.12;61.32;99389.33;1701671;84;21082;-73
2022/01/28 11:08:12;;;;;;;11.43;8.50;;;;;;;6.16;61.12;99387.75;1702036;84;21718;-73
2022/01/28 11:10:41;;;;;;;11.93;8.88;;;;;;;6.20;61.01;99380.08;1703187;82;21631;-74
2022/01/28 11:13:07;;;;;;;10.65;8.40;;;;;;;6.24;61.09;99373.20;1703589;83;21047;-74
2022/01/28 11:15:35;;;;;;;11.00;8.08;;;;;;;6.24;60.73;99364.72;1701775;84;21018;-73
2022/01/28 11:18:04;;;;;;;11.20;8.53;;;;;;;6.21;60.63;99378.48;1701449;84;21061;-73
2022/01/28 11:20:51;;;;;;;11.38;8.83;;;;;;;6.18;60.43;99371.58;1701422;82;21161;-71
2022/01/28 11:23:51;;;;;;;10.68;8.20;;;;;;;6.16;60.45;99355.94;1701222;83;21065;-75
2022/01/28 11:26:34;;;;;;;11.20;8.53;;;;;;;6.12;60.29;99345.58;1701714;84;21039;-74
2022/01/28 11:29:02;;;;;;;12.03;8.53;;;;;;;6.10;60.53;99343.17;1692825;84;21522;-73
2022/01/28 11:31:51;;;;;;;11.43;7.97;;;;;;;6.11;60.33;99343.97;1702009;82;21049;-73
2022/01/28 11:34:25;;;;;;;10.30;7.17;;;;;;;6.01;60.30;99334.64;1701112;84;21215;-73
2022/01/28 11:36:54;;;;;;;11.33;8.35;;;;;;;5.89;60.57;99340.13;1702178;84;21043;-74
2022/01/28 11:39:38;;;;;;;10.90;8.28;;;;;;;5.82;60.82;99327.09;1701728;84;20999;-73
2022/01/28 11:42:18;;;;;;;10.90;8.53;;;;;;;5.85;61.07;99329.73;1701774;83;21022;-71
2022/01/28 11:44:54;;;;;;;12.07;8.35;;;;;;;5.94;60.98;99328.23;1701744;84;21085;-73
2022/01/28 11:47:35;;;;;;;11.73;8.08;;;;;;;6.02;60.76;99330.92;1702015;84;21177;-73
2022/01/28 11:50:17;;;;;;;10.63;7.53;;;;;;;5.99;60.65;99327.45;1701963;84;22250;-74
2022/01/28 11:52:49;;;;;;;9.98;7.62;;;;;;;6.03;60.79;99316.64;1701926;84;21037;-73
2022/01/28 11:55:21;;;;;;;10.38;8.03;;;;;;;6.05;60.41;99324.58;1702065;84;21057;-74
2022/01/28 11:57:57;;;;;;;10.35;8.10;;;;;;;6.10;60.51;99333.10;1702041;84;21128;-73
2022/01/28 12:00:36;;;;;;;11.05;8.15;;;;;;;6.18;60.07;99321.20;1701574;84;21149;-73
2022/01/28 12:03:22;;;;;;;10.48;7.70;;;;;;;6.26;60.07;99332.13;1701743;83;21019;-73
2022/01/28 12:05:56;;;;;;;10.68;7.72;;;;;;;6.33;59.57;99307.48;1701754;84;21033;-73
2022/01/28 12:08:29;;;;;;;10.53;8.15;;;;;;;6.40;59.29;99321.04;1701662;84;21557;-73
2022/01/28 12:11:00;;;;;;;10.55;7.97;;;;;;;6.40;59.04;99319.18;1701634;84;21176;-73
2022/01/28 12:13:51;;;;;;;10.63;7.92;;;;;;;6.40;59.04;99321.83;1701846;84;21177;-73
2022/01/28 12:16:30;;;;;;;9.93;7.77;;;;;;;6.36;59.06;99301.41;1701775;84;21494;-74
2022/01/28 12:18:58;;;;;;;10.95;7.75;;;;;;;6.24;58.85;99316.98;1701666;84;21145;-72
2022/01/28 12:21:29;;;;;;;11.38;7.92;;;;;;;6.13;59.14;99315.89;1702067;84;21048;-75
2022/01/28 12:24:23;;;;;;;11.00;7.22;;;;;;;6.02;59.25;99309.72;1714632;83;21070;-74
2022/01/28 12:27:10;;;;;;;10.82;7.60;;;;;;;5.90;59.37;99320.50;1679588;84;22260;-74
2022/01/28 12:29:47;;;;;;;10.88;7.92;;;;;;;5.78;59.75;99315.39;1714092;83;20956;-74
2022/01/28 12:32:21;;;;;;;9.80;7.45;;;;;;;5.73;59.93;99318.02;1681382;83;21027;-74
2022/01/28 12:34:48;;;;;;;9.55;7.67;;;;;;;5.65;60.20;99310.00;1701747;84;21537;-73
2022/01/28 12:37:20;;;;;;;10.43;7.03;;;;;;;5.71;60.30;99315.34;1714735;83;21126;-74
2022/01/28 12:39:51;;;;;;;10.15;7.15;;;;;;;5.84;60.29;99311.72;1713225;83;21588;-73
2022/01/28 12:42:23;;;;;;;9.65;7.22;;;;;;;5.96;60.13;99313.42;1713295;82;21114;-73
2022/01/28 12:44:40;;;;;;;10.40;7.00;;;;;;;6.02;59.88;99311.05;1700159;83;21070;-74
2022/01/28 12:47:09;;;;;;;8.63;6.90;;;;;;;6.03;59.66;99314.78;1702438;84;21050;-74
2022/01/28 12:49:41;;;;;;;9.08;7.03;;;;;;;6.00;59.53;99320.59;1729627;82;20961;-74
2022/01/28 12:52:11;;;;;;;9.95;7.05;;;;;;;5.95;59.64;99314.45;1723447;81;21127;-73
2022/01/28 12:54:43;;;;;;;9.33;6.50;;;;;;;5.91;59.76;99312.81;1670975;84;21644;-75
2022/01/28 12:57:12;;;;;;;10.48;6.80;;;;;;;5.89;59.77;99317.59;1702559;83;21039;-73
2022/01/28 12:59:40;;;;;;;9.35;6.95;;;;;;;5.82;59.85;99308.55;1729680;81;21043;-73
2022/01/28 13:02:07;;;;;;;10.03;7.08;;;;;;;5.81;59.92;99308.78;1702418;83;21188;-74
2022/01/28 13:04:56;;;;;;;9.93;6.92;;;;;;;5.76;59.85;99310.89;1729731;82;21141;-74
2022/01/28 13:10:07;;;;;;;8.70;6.33;;;;;;;5.63;60.00;99296.23;1729879;82;21009;-74
2022/01/28 13:12:35;;;;;;;10.60;6.75;;;;;;;5.56;60.02;99300.13;1702440;84;21612;-76